createdAt,value
2016-12-02T00:00:09.251Z,1013.95
2016-12-02T00:00:35.336Z,1013.99
2016-12-02T00:01:01.430Z,1014
2016-12-02T00:01:27.554Z,1014
2016-12-02T00:01:53.639Z,1013.99
2016-12-02T00:02:19.731Z,1013.97
2016-12-02T00:02:45.828Z,1013.96
2016-12-02T00:03:11.917Z,1013.98
2016-12-02T00:03:38.003Z,1013.97
2016-12-02T00:04:04.107Z,1013.97
2016-12-02T00:04:30.198Z,1014
2016-12-02T00:04:56.295Z,1013.96
2016-12-02T00:05:22.383Z,1013.97
2016-12-02T00:05:48.470Z,1013.91
2016-12-02T00:06:14.591Z,1013.94
2016-12-02T00:06:40.677Z,1013.93
2016-12-02T00:07:06.762Z,1013.91
2016-12-02T00:07:32.866Z,1013.91
2016-12-02T00:07:58.955Z,1013.92
2016-12-02T00:08:25.043Z,1013.9
2016-12-02T00:08:51.138Z,1013.9
2016-12-02T00:09:17.234Z,1013.95
2016-12-02T00:09:43.317Z,1013.91
2016-12-02T00:10:09.418Z,1013.95
2016-12-02T00:10:35.499Z,1013.97
2016-12-02T00:11:01.601Z,1013.93
2016-12-02T00:11:27.687Z,1013.96
2016-12-02T00:11:53.779Z,1013.97
2016-12-02T00:12:19.874Z,1013.96
2016-12-02T00:12:45.969Z,1014
2016-12-02T00:13:12.059Z,1013.92
2016-12-02T00:13:38.156Z,1013.98
2016-12-02T00:14:04.258Z,1013.94
2016-12-02T00:14:30.336Z,1013.98
2016-12-02T00:14:56.431Z,1013.94
2016-12-02T00:15:22.526Z,1013.92
2016-12-02T00:15:48.614Z,1013.89
2016-12-02T00:16:14.715Z,1013.97
2016-12-02T00:16:40.796Z,1013.95
2016-12-02T00:17:06.896Z,1013.92
2016-12-02T00:17:32.997Z,1013.95
2016-12-02T00:17:59.077Z,1013.94
2016-12-02T00:18:25.174Z,1013.9
2016-12-02T00:18:51.268Z,1013.91
2016-12-02T00:19:17.351Z,1013.9
2016-12-02T00:19:43.443Z,1013.87
2016-12-02T00:20:09.542Z,1013.89
2016-12-02T00:20:35.630Z,1013.87
2016-12-02T00:21:01.720Z,1013.89
2016-12-02T00:21:27.815Z,1013.88
2016-12-02T00:21:53.908Z,1013.88
2016-12-02T00:22:20.001Z,1013.86
2016-12-02T00:22:46.083Z,1013.85
2016-12-02T00:23:12.171Z,1013.85
2016-12-02T00:23:38.272Z,1013.87
2016-12-02T00:24:04.360Z,1013.86
2016-12-02T00:24:30.445Z,1013.85
2016-12-02T00:24:56.546Z,1013.86
2016-12-02T00:25:22.635Z,1013.84
2016-12-02T00:25:48.717Z,1013.87
2016-12-02T00:26:14.821Z,1013.9
2016-12-02T00:26:40.917Z,1013.84
2016-12-02T00:27:07.009Z,1013.89
2016-12-02T00:27:33.101Z,1013.85
2016-12-02T00:27:59.190Z,1013.84
2016-12-02T00:28:25.292Z,1013.81
2016-12-02T00:28:51.382Z,1013.83
2016-12-02T00:29:17.470Z,1013.82
2016-12-02T00:29:43.565Z,1013.8
2016-12-02T00:30:09.660Z,1013.82
2016-12-02T00:30:35.744Z,1013.76
2016-12-02T00:31:01.839Z,1013.79
2016-12-02T00:31:27.933Z,1013.8
2016-12-02T00:31:54.017Z,1013.76
2016-12-02T00:32:20.109Z,1013.78
2016-12-02T00:32:46.208Z,1013.81
2016-12-02T00:33:12.291Z,1013.79
2016-12-02T00:33:38.381Z,1013.8
2016-12-02T00:34:04.481Z,1013.81
2016-12-02T00:34:30.603Z,1013.81
2016-12-02T00:34:56.688Z,1013.86
2016-12-02T00:35:22.781Z,1013.82
2016-12-02T00:35:48.875Z,1013.83
2016-12-02T00:36:14.958Z,1013.81
2016-12-02T00:36:41.063Z,1013.78
2016-12-02T00:37:07.155Z,1013.82
2016-12-02T00:37:33.241Z,1013.84
2016-12-02T00:37:59.339Z,1013.84
2016-12-02T00:38:25.420Z,1013.85
2016-12-02T00:38:51.521Z,1013.81
2016-12-02T00:39:17.610Z,1013.87
2016-12-02T00:39:43.696Z,1013.88
2016-12-02T00:40:09.800Z,1013.84
2016-12-02T00:40:35.996Z,1013.89
2016-12-02T00:41:02.081Z,1013.89
2016-12-02T00:41:28.179Z,1013.82
2016-12-02T00:41:54.281Z,1013.87
2016-12-02T00:42:20.357Z,1013.89
2016-12-02T00:42:46.447Z,1013.86
2016-12-02T00:43:12.549Z,1013.87
2016-12-02T00:43:38.635Z,1013.87
2016-12-02T00:44:04.729Z,1013.85
2016-12-02T00:44:30.815Z,1013.81
2016-12-02T00:44:56.912Z,1013.86
2016-12-02T00:45:23.006Z,1013.86
2016-12-02T00:45:49.087Z,1013.85
2016-12-02T00:46:15.175Z,1013.84
2016-12-02T00:46:41.272Z,1013.88
2016-12-02T00:47:07.359Z,1013.88
2016-12-02T00:47:33.448Z,1013.86
2016-12-02T00:47:59.548Z,1013.86
2016-12-02T00:48:25.636Z,1013.86
2016-12-02T00:48:51.722Z,1013.82
2016-12-02T00:49:17.823Z,1013.78
2016-12-02T00:49:43.916Z,1013.83
2016-12-02T00:50:10.022Z,1013.8
2016-12-02T00:50:36.105Z,1013.81
2016-12-02T00:51:02.200Z,1013.8
2016-12-02T00:51:28.299Z,1013.87
2016-12-02T00:51:54.379Z,1013.8
2016-12-02T00:52:20.464Z,1013.82
2016-12-02T00:52:46.565Z,1013.87
2016-12-02T00:53:12.655Z,1013.88
2016-12-02T00:53:38.733Z,1013.89
2016-12-02T00:54:04.831Z,1013.86
2016-12-02T00:54:30.922Z,1013.88
2016-12-02T00:54:57.014Z,1013.89
2016-12-02T00:55:23.103Z,1013.86
2016-12-02T00:55:49.186Z,1013.88
2016-12-02T00:56:15.290Z,1013.86
2016-12-02T00:56:41.377Z,1013.85
2016-12-02T00:57:07.458Z,1013.83
2016-12-02T00:57:33.562Z,1013.84
2016-12-02T00:57:59.659Z,1013.87
2016-12-02T00:58:25.741Z,1013.88
2016-12-02T00:58:51.839Z,1013.85
2016-12-02T00:59:17.936Z,1013.82
2016-12-02T00:59:44.015Z,1013.84
2016-12-02T01:00:10.112Z,1013.76
2016-12-02T01:00:36.199Z,1013.8
2016-12-02T01:01:02.295Z,1013.81
2016-12-02T01:01:28.386Z,1013.83
2016-12-02T01:01:54.466Z,1013.8
2016-12-02T01:02:20.564Z,1013.82
2016-12-02T01:02:46.666Z,1013.8
2016-12-02T01:03:12.742Z,1013.78
2016-12-02T01:03:38.838Z,1013.84
2016-12-02T01:04:04.934Z,1013.76
2016-12-02T01:04:31.019Z,1013.8
2016-12-02T01:04:57.110Z,1013.82
2016-12-02T01:05:23.212Z,1013.78
2016-12-02T01:05:49.295Z,1013.86
2016-12-02T01:06:15.399Z,1013.83
2016-12-02T01:06:41.481Z,1013.76
2016-12-02T01:07:07.575Z,1013.86
2016-12-02T01:07:33.673Z,1013.76
2016-12-02T01:07:59.758Z,1013.85
2016-12-02T01:08:25.844Z,1013.86
2016-12-02T01:08:51.943Z,1013.81
2016-12-02T01:09:18.031Z,1013.83
2016-12-02T01:09:44.116Z,1013.84
2016-12-02T01:10:10.214Z,1013.91
2016-12-02T01:10:36.308Z,1013.89
2016-12-02T01:11:02.489Z,1013.89
2016-12-02T01:11:28.585Z,1013.88
2016-12-02T01:11:54.673Z,1013.89
2016-12-02T01:12:20.774Z,1013.95
2016-12-02T01:12:46.860Z,1013.9
2016-12-02T01:13:12.941Z,1013.89
2016-12-02T01:13:39.045Z,1013.9
2016-12-02T01:14:05.134Z,1013.88
2016-12-02T01:14:31.218Z,1013.89
2016-12-02T01:14:57.316Z,1013.9
2016-12-02T01:15:23.408Z,1013.91
2016-12-02T01:15:49.489Z,1013.9
2016-12-02T01:16:15.581Z,1013.9
2016-12-02T01:16:41.680Z,1013.89
2016-12-02T01:17:07.758Z,1013.84
2016-12-02T01:17:33.846Z,1013.85
2016-12-02T01:17:59.944Z,1013.91
2016-12-02T01:18:26.032Z,1013.9
2016-12-02T01:18:52.119Z,1013.85
2016-12-02T01:19:18.222Z,1013.89
2016-12-02T01:19:44.303Z,1013.87
2016-12-02T01:20:10.388Z,1013.89
2016-12-02T01:20:36.488Z,1013.88
2016-12-02T01:21:02.576Z,1013.92
2016-12-02T01:21:28.664Z,1013.9
2016-12-02T01:21:54.770Z,1013.92
2016-12-02T01:22:20.858Z,1013.91
2016-12-02T01:22:46.952Z,1013.9
2016-12-02T01:23:13.040Z,1013.95
2016-12-02T01:23:39.121Z,1013.91
2016-12-02T01:24:05.226Z,1013.85
2016-12-02T01:24:31.315Z,1013.88
2016-12-02T01:24:57.394Z,1013.88
2016-12-02T01:25:23.490Z,1013.9
2016-12-02T01:25:49.583Z,1013.82
2016-12-02T01:26:15.995Z,1013.9
2016-12-02T01:26:42.093Z,1013.89
2016-12-02T01:27:08.189Z,1013.86
2016-12-02T01:27:34.267Z,1013.89
2016-12-02T01:28:00.359Z,1013.82
2016-12-02T01:28:26.448Z,1013.94
2016-12-02T01:28:52.546Z,1013.87
2016-12-02T01:29:18.637Z,1013.91
2016-12-02T01:29:44.724Z,1013.82
2016-12-02T01:30:10.820Z,1013.91
2016-12-02T01:30:36.926Z,1013.92
2016-12-02T01:31:03.011Z,1013.9
2016-12-02T01:31:29.103Z,1013.91
2016-12-02T01:31:55.198Z,1013.89
2016-12-02T01:32:21.277Z,1013.89
2016-12-02T01:32:47.367Z,1013.91
2016-12-02T01:33:13.467Z,1013.94
2016-12-02T01:33:39.553Z,1013.87
2016-12-02T01:34:05.655Z,1013.89
2016-12-02T01:34:31.736Z,1013.91
2016-12-02T01:34:57.825Z,1013.98
2016-12-02T01:35:23.925Z,1013.98
2016-12-02T01:35:50.009Z,1013.96
2016-12-02T01:36:16.098Z,1013.96
2016-12-02T01:36:42.198Z,1013.93
2016-12-02T01:37:08.281Z,1013.98
2016-12-02T01:37:34.367Z,1013.91
2016-12-02T01:38:00.469Z,1013.95
2016-12-02T01:38:26.561Z,1013.95
2016-12-02T01:38:52.639Z,1013.98
2016-12-02T01:39:18.740Z,1013.92
2016-12-02T01:39:44.828Z,1013.9
2016-12-02T01:40:10.926Z,1013.93
2016-12-02T01:40:37.008Z,1013.97
2016-12-02T01:41:03.203Z,1013.92
2016-12-02T01:41:29.298Z,1013.93
2016-12-02T01:41:55.386Z,1013.89
2016-12-02T01:42:21.471Z,1013.98
2016-12-02T01:42:47.572Z,1013.94
2016-12-02T01:43:13.663Z,1013.94
2016-12-02T01:43:39.747Z,1013.91
2016-12-02T01:44:05.841Z,1013.9
2016-12-02T01:44:31.967Z,1013.93
2016-12-02T01:44:58.054Z,1013.92
2016-12-02T01:45:24.141Z,1013.91
2016-12-02T01:45:50.223Z,1013.92
2016-12-02T01:46:16.321Z,1013.87
2016-12-02T01:46:42.416Z,1013.9
2016-12-02T01:47:08.500Z,1013.89
2016-12-02T01:47:34.596Z,1013.88
2016-12-02T01:48:00.691Z,1013.88
2016-12-02T01:48:26.768Z,1013.86
2016-12-02T01:48:52.865Z,1013.88
2016-12-02T01:49:18.958Z,1013.91
2016-12-02T01:49:45.040Z,1013.9
2016-12-02T01:50:11.130Z,1013.88
2016-12-02T01:50:37.222Z,1013.86
2016-12-02T01:51:03.316Z,1013.84
2016-12-02T01:51:29.419Z,1013.89
2016-12-02T01:51:55.494Z,1013.84
2016-12-02T01:52:21.587Z,1013.92
2016-12-02T01:52:47.687Z,1013.88
2016-12-02T01:53:13.775Z,1013.88
2016-12-02T01:53:39.864Z,1013.9
2016-12-02T01:54:05.958Z,1013.91
2016-12-02T01:54:32.047Z,1013.87
2016-12-02T01:54:58.130Z,1013.88
2016-12-02T01:55:24.235Z,1013.91
2016-12-02T01:55:50.319Z,1013.88
2016-12-02T01:56:16.717Z,1013.86
2016-12-02T01:56:42.804Z,1013.9
2016-12-02T01:57:08.896Z,1013.86
2016-12-02T01:57:34.993Z,1013.88
2016-12-02T01:58:01.077Z,1013.84
2016-12-02T01:58:27.169Z,1013.87
2016-12-02T01:58:53.265Z,1013.8
2016-12-02T01:59:19.354Z,1013.87
2016-12-02T01:59:45.439Z,1013.82
2016-12-02T02:00:11.541Z,1013.82
2016-12-02T02:00:37.631Z,1013.79
2016-12-02T02:01:03.712Z,1013.8
2016-12-02T02:01:29.808Z,1013.84
2016-12-02T02:01:55.912Z,1013.79
2016-12-02T02:02:21.986Z,1013.77
2016-12-02T02:02:48.076Z,1013.79
2016-12-02T02:03:14.176Z,1013.76
2016-12-02T02:03:40.254Z,1013.76
2016-12-02T02:04:06.341Z,1013.76
2016-12-02T02:04:32.441Z,1013.75
2016-12-02T02:04:58.530Z,1013.73
2016-12-02T02:05:24.611Z,1013.72
2016-12-02T02:05:50.715Z,1013.74
2016-12-02T02:06:16.804Z,1013.75
2016-12-02T02:06:42.890Z,1013.74
2016-12-02T02:07:08.989Z,1013.7
2016-12-02T02:07:35.080Z,1013.7
2016-12-02T02:08:01.180Z,1013.74
2016-12-02T02:08:27.295Z,1013.75
2016-12-02T02:08:53.375Z,1013.7
2016-12-02T02:09:19.473Z,1013.7
2016-12-02T02:09:45.559Z,1013.75
2016-12-02T02:10:11.649Z,1013.69
2016-12-02T02:10:37.753Z,1013.77
2016-12-02T02:11:03.842Z,1013.71
2016-12-02T02:11:30.026Z,1013.73
2016-12-02T02:11:56.117Z,1013.68
2016-12-02T02:12:22.216Z,1013.67
2016-12-02T02:12:48.298Z,1013.73
2016-12-02T02:13:14.391Z,1013.7
2016-12-02T02:13:40.471Z,1013.69
2016-12-02T02:14:06.569Z,1013.74
2016-12-02T02:14:32.659Z,1013.68
2016-12-02T02:14:58.745Z,1013.73
2016-12-02T02:15:24.843Z,1013.67
2016-12-02T02:15:50.939Z,1013.67
2016-12-02T02:16:17.015Z,1013.64
2016-12-02T02:16:43.100Z,1013.69
2016-12-02T02:17:09.203Z,1013.7
2016-12-02T02:17:35.290Z,1013.68
2016-12-02T02:18:01.381Z,1013.66
2016-12-02T02:18:27.470Z,1013.63
2016-12-02T02:18:53.561Z,1013.7
2016-12-02T02:19:19.660Z,1013.68
2016-12-02T02:19:45.737Z,1013.68
2016-12-02T02:20:11.835Z,1013.71
2016-12-02T02:20:37.936Z,1013.71
2016-12-02T02:21:04.022Z,1013.65
2016-12-02T02:21:30.112Z,1013.67
2016-12-02T02:21:56.211Z,1013.61
2016-12-02T02:22:22.296Z,1013.68
2016-12-02T02:22:48.381Z,1013.67
2016-12-02T02:23:14.481Z,1013.71
2016-12-02T02:23:40.570Z,1013.72
2016-12-02T02:24:06.667Z,1013.68
2016-12-02T02:24:32.752Z,1013.75
2016-12-02T02:24:58.844Z,1013.7
2016-12-02T02:25:24.941Z,1013.71
2016-12-02T02:25:51.051Z,1013.76
2016-12-02T02:26:17.132Z,1013.73
2016-12-02T02:26:43.533Z,1013.71
2016-12-02T02:27:09.623Z,1013.8
2016-12-02T02:27:35.705Z,1013.77
2016-12-02T02:28:01.807Z,1013.76
2016-12-02T02:28:27.901Z,1013.78
2016-12-02T02:28:53.991Z,1013.73
2016-12-02T02:29:20.103Z,1013.77
2016-12-02T02:29:46.184Z,1013.77
2016-12-02T02:30:12.281Z,1013.78
2016-12-02T02:30:38.373Z,1013.75
2016-12-02T02:31:04.457Z,1013.74
2016-12-02T02:31:30.560Z,1013.77
2016-12-02T02:31:56.655Z,1013.74
2016-12-02T02:32:22.742Z,1013.74
2016-12-02T02:32:48.836Z,1013.73
2016-12-02T02:33:14.937Z,1013.71
2016-12-02T02:33:41.021Z,1013.72
2016-12-02T02:34:07.115Z,1013.74
2016-12-02T02:34:33.212Z,1013.74
2016-12-02T02:34:59.301Z,1013.72
2016-12-02T02:35:25.399Z,1013.72
2016-12-02T02:35:51.482Z,1013.72
2016-12-02T02:36:17.571Z,1013.65
2016-12-02T02:36:43.666Z,1013.66
2016-12-02T02:37:09.750Z,1013.73
2016-12-02T02:37:35.850Z,1013.67
2016-12-02T02:38:01.944Z,1013.71
2016-12-02T02:38:28.033Z,1013.66
2016-12-02T02:38:54.124Z,1013.73
2016-12-02T02:39:20.223Z,1013.66
2016-12-02T02:39:46.305Z,1013.7
2016-12-02T02:40:12.393Z,1013.73
2016-12-02T02:40:38.490Z,1013.7
2016-12-02T02:41:04.586Z,1013.69
2016-12-02T02:41:30.689Z,1013.69
2016-12-02T02:41:56.874Z,1013.74
2016-12-02T02:42:22.964Z,1013.7
2016-12-02T02:42:49.067Z,1013.72
2016-12-02T02:43:15.153Z,1013.7
2016-12-02T02:43:41.235Z,1013.73
2016-12-02T02:44:07.335Z,1013.77
2016-12-02T02:44:33.425Z,1013.73
2016-12-02T02:44:59.511Z,1013.72
2016-12-02T02:45:25.606Z,1013.74
2016-12-02T02:45:51.695Z,1013.78
2016-12-02T02:46:17.779Z,1013.82
2016-12-02T02:46:43.905Z,1013.8
2016-12-02T02:47:10.000Z,1013.77
2016-12-02T02:47:36.086Z,1013.74
2016-12-02T02:48:02.178Z,1013.79
2016-12-02T02:48:28.272Z,1013.8
2016-12-02T02:48:54.360Z,1013.8
2016-12-02T02:49:20.453Z,1013.77
2016-12-02T02:49:46.553Z,1013.7
2016-12-02T02:50:12.641Z,1013.74
2016-12-02T02:50:38.726Z,1013.73
2016-12-02T02:51:04.823Z,1013.72
2016-12-02T02:51:30.913Z,1013.74
2016-12-02T02:51:57.008Z,1013.67
2016-12-02T02:52:23.096Z,1013.72
2016-12-02T02:52:49.181Z,1013.76
2016-12-02T02:53:15.313Z,1013.74
2016-12-02T02:53:41.393Z,1013.7
2016-12-02T02:54:07.477Z,1013.74
2016-12-02T02:54:33.575Z,1013.68
2016-12-02T02:54:59.663Z,1013.68
2016-12-02T02:55:25.746Z,1013.67
2016-12-02T02:55:51.849Z,1013.69
2016-12-02T02:56:17.941Z,1013.69
2016-12-02T02:56:44.328Z,1013.68
2016-12-02T02:57:10.422Z,1013.69
2016-12-02T02:57:36.508Z,1013.69
2016-12-02T02:58:02.606Z,1013.69
2016-12-02T02:58:28.692Z,1013.67
2016-12-02T02:58:54.779Z,1013.73
2016-12-02T02:59:20.880Z,1013.67
2016-12-02T02:59:46.970Z,1013.47
2016-12-02T03:00:13.059Z,1013.59
2016-12-02T03:00:39.155Z,1013.64
2016-12-02T03:01:05.255Z,1013.63
2016-12-02T03:01:31.336Z,1013.65
2016-12-02T03:01:57.424Z,1013.66
2016-12-02T03:02:23.521Z,1013.63
2016-12-02T03:02:49.601Z,1013.69
2016-12-02T03:03:15.698Z,1013.6
2016-12-02T03:03:41.781Z,1013.66
2016-12-02T03:04:07.877Z,1013.58
2016-12-02T03:04:33.976Z,1013.57
2016-12-02T03:05:00.053Z,1013.6
2016-12-02T03:05:26.148Z,1013.52
2016-12-02T03:05:52.243Z,1013.6
2016-12-02T03:06:18.322Z,1013.59
2016-12-02T03:06:44.413Z,1013.58
2016-12-02T03:07:10.511Z,1013.52
2016-12-02T03:07:36.595Z,1013.55
2016-12-02T03:08:02.685Z,1013.51
2016-12-02T03:08:28.781Z,1013.54
2016-12-02T03:08:54.872Z,1013.53
2016-12-02T03:09:20.965Z,1013.58
2016-12-02T03:09:47.051Z,1013.58
2016-12-02T03:10:13.142Z,1013.52
2016-12-02T03:10:39.240Z,1013.5
2016-12-02T03:11:05.371Z,1013.51
2016-12-02T03:11:31.456Z,1013.47
2016-12-02T03:11:57.656Z,1013.55
2016-12-02T03:12:23.743Z,1013.51
2016-12-02T03:12:49.829Z,1013.49
2016-12-02T03:13:15.927Z,1013.51
2016-12-02T03:13:42.020Z,1013.51
2016-12-02T03:14:08.113Z,1013.48
2016-12-02T03:14:34.200Z,1013.47
2016-12-02T03:15:00.285Z,1013.53
2016-12-02T03:15:26.387Z,1013.52
2016-12-02T03:15:52.480Z,1013.49
2016-12-02T03:16:18.561Z,1013.48
2016-12-02T03:16:44.656Z,1013.49
2016-12-02T03:17:10.747Z,1013.48
2016-12-02T03:17:36.834Z,1013.48
2016-12-02T03:18:02.928Z,1013.53
2016-12-02T03:18:29.023Z,1013.54
2016-12-02T03:18:55.102Z,1013.58
2016-12-02T03:19:21.195Z,1013.57
2016-12-02T03:19:47.281Z,1013.54
2016-12-02T03:20:13.381Z,1013.55
2016-12-02T03:20:39.470Z,1013.55
2016-12-02T03:21:05.555Z,1013.54
2016-12-02T03:21:31.648Z,1013.57
2016-12-02T03:21:57.747Z,1013.61
2016-12-02T03:22:23.831Z,1013.61
2016-12-02T03:22:49.924Z,1013.55
2016-12-02T03:23:16.016Z,1013.59
2016-12-02T03:23:42.096Z,1013.63
2016-12-02T03:24:08.186Z,1013.56
2016-12-02T03:24:34.285Z,1013.59
2016-12-02T03:25:00.375Z,1013.55
2016-12-02T03:25:26.473Z,1013.59
2016-12-02T03:25:52.554Z,1013.61
2016-12-02T03:26:18.646Z,1013.63
2016-12-02T03:26:44.741Z,1013.58
2016-12-02T03:27:10.824Z,1013.59
2016-12-02T03:27:36.914Z,1013.54
2016-12-02T03:28:03.010Z,1013.54
2016-12-02T03:28:29.092Z,1013.58
2016-12-02T03:28:55.174Z,1013.58
2016-12-02T03:29:21.277Z,1013.56
2016-12-02T03:29:47.368Z,1013.56
2016-12-02T03:30:13.452Z,1013.54
2016-12-02T03:30:39.549Z,1013.52
2016-12-02T03:31:05.638Z,1013.55
2016-12-02T03:31:31.724Z,1013.56
2016-12-02T03:31:57.813Z,1013.55
2016-12-02T03:32:23.912Z,1013.52
2016-12-02T03:32:49.991Z,1013.56
2016-12-02T03:33:16.087Z,1013.53
2016-12-02T03:33:42.187Z,1013.57
2016-12-02T03:34:08.273Z,1013.52
2016-12-02T03:34:34.359Z,1013.6
2016-12-02T03:35:00.462Z,1013.58
2016-12-02T03:35:26.542Z,1013.62
2016-12-02T03:35:52.627Z,1013.61
2016-12-02T03:36:18.724Z,1013.65
2016-12-02T03:36:44.810Z,1013.61
2016-12-02T03:37:10.906Z,1013.59
2016-12-02T03:37:36.992Z,1013.64
2016-12-02T03:38:03.081Z,1013.57
2016-12-02T03:38:29.181Z,1013.64
2016-12-02T03:38:55.269Z,1013.68
2016-12-02T03:39:21.351Z,1013.65
2016-12-02T03:39:47.458Z,1013.67
2016-12-02T03:40:13.546Z,1013.69
2016-12-02T03:40:39.633Z,1013.7
2016-12-02T03:41:05.735Z,1013.68
2016-12-02T03:41:31.828Z,1013.68
2016-12-02T03:41:57.928Z,1013.68
2016-12-02T03:42:24.110Z,1013.7
2016-12-02T03:42:50.195Z,1013.65
2016-12-02T03:43:16.298Z,1013.69
2016-12-02T03:43:42.392Z,1013.69
2016-12-02T03:44:08.473Z,1013.68
2016-12-02T03:44:34.573Z,1013.68
2016-12-02T03:45:00.665Z,1013.68
2016-12-02T03:45:26.748Z,1013.69
2016-12-02T03:45:52.842Z,1013.68
2016-12-02T03:46:18.941Z,1013.69
2016-12-02T03:46:45.021Z,1013.71
2016-12-02T03:47:11.667Z,1013.67
2016-12-02T03:47:37.750Z,1013.68
2016-12-02T03:48:03.876Z,1013.67
2016-12-02T03:48:29.967Z,1013.61
2016-12-02T03:48:56.051Z,1013.66
2016-12-02T03:49:22.142Z,1013.62
2016-12-02T03:49:48.240Z,1013.64
2016-12-02T03:50:14.318Z,1013.65
2016-12-02T03:50:40.415Z,1013.59
2016-12-02T03:51:06.512Z,1013.61
2016-12-02T03:51:32.593Z,1013.63
2016-12-02T03:51:58.673Z,1013.58
2016-12-02T03:52:24.773Z,1013.64
2016-12-02T03:52:50.859Z,1013.6
2016-12-02T03:53:16.942Z,1013.62
2016-12-02T03:53:43.039Z,1013.62
2016-12-02T03:54:09.125Z,1013.6
2016-12-02T03:54:35.210Z,1013.58
2016-12-02T03:55:01.309Z,1013.59
2016-12-02T03:55:27.398Z,1013.56
2016-12-02T03:55:53.481Z,1013.58
2016-12-02T03:56:19.570Z,1013.62
2016-12-02T03:56:45.666Z,1013.67
2016-12-02T03:57:11.748Z,1013.68
2016-12-02T03:57:37.842Z,1013.68
2016-12-02T03:58:03.941Z,1013.6
2016-12-02T03:58:30.023Z,1013.67
2016-12-02T03:58:56.119Z,1013.68
2016-12-02T03:59:22.205Z,1013.65
2016-12-02T03:59:48.298Z,1013.64
2016-12-02T04:00:14.401Z,1013.66
2016-12-02T04:00:40.479Z,1013.63
2016-12-02T04:01:06.572Z,1013.63
2016-12-02T04:01:32.674Z,1013.66
2016-12-02T04:01:58.755Z,1013.68
2016-12-02T04:02:24.857Z,1013.69
2016-12-02T04:02:50.935Z,1013.66
2016-12-02T04:03:17.021Z,1013.64
2016-12-02T04:03:43.107Z,1013.61
2016-12-02T04:04:09.202Z,1013.6
2016-12-02T04:04:35.298Z,1013.66
2016-12-02T04:05:01.393Z,1013.65
2016-12-02T04:05:27.475Z,1013.6
2016-12-02T04:05:53.564Z,1013.6
2016-12-02T04:06:19.669Z,1013.64
2016-12-02T04:06:45.758Z,1013.62
2016-12-02T04:07:11.844Z,1013.57
2016-12-02T04:07:37.944Z,1013.59
2016-12-02T04:08:04.031Z,1013.6
2016-12-02T04:08:30.114Z,1013.63
2016-12-02T04:08:56.207Z,1013.62
2016-12-02T04:09:22.306Z,1013.64
2016-12-02T04:09:48.394Z,1013.61
2016-12-02T04:10:14.481Z,1013.61
2016-12-02T04:10:40.571Z,1013.6
2016-12-02T04:11:06.673Z,1013.58
2016-12-02T04:11:32.764Z,1013.6
2016-12-02T04:11:58.843Z,1013.58
2016-12-02T04:12:25.044Z,1013.62
2016-12-02T04:12:51.134Z,1013.62
2016-12-02T04:13:17.218Z,1013.63
2016-12-02T04:13:43.309Z,1013.6
2016-12-02T04:14:09.408Z,1013.62
2016-12-02T04:14:35.486Z,1013.59
2016-12-02T04:15:01.577Z,1013.57
2016-12-02T04:15:27.675Z,1013.58
2016-12-02T04:15:53.759Z,1013.58
2016-12-02T04:16:19.851Z,1013.6
2016-12-02T04:16:45.946Z,1013.59
2016-12-02T04:17:12.036Z,1013.58
2016-12-02T04:17:38.123Z,1013.61
2016-12-02T04:18:04.224Z,1013.58
2016-12-02T04:18:30.310Z,1013.64
2016-12-02T04:18:56.397Z,1013.63
2016-12-02T04:19:22.497Z,1013.66
2016-12-02T04:19:48.592Z,1013.63
2016-12-02T04:20:14.669Z,1013.67
2016-12-02T04:20:40.765Z,1013.68
2016-12-02T04:21:06.843Z,1013.68
2016-12-02T04:21:32.947Z,1013.65
2016-12-02T04:21:59.032Z,1013.64
2016-12-02T04:22:25.112Z,1013.65
2016-12-02T04:22:51.214Z,1013.69
2016-12-02T04:23:17.305Z,1013.63
2016-12-02T04:23:43.388Z,1013.65
2016-12-02T04:24:09.487Z,1013.67
2016-12-02T04:24:35.583Z,1013.71
2016-12-02T04:25:01.663Z,1013.65
2016-12-02T04:25:27.756Z,1013.66
2016-12-02T04:25:53.857Z,1013.69
2016-12-02T04:26:19.942Z,1013.68
2016-12-02T04:26:46.036Z,1013.7
2016-12-02T04:27:12.119Z,1013.72
2016-12-02T04:27:38.525Z,1013.72
2016-12-02T04:28:04.621Z,1013.71
2016-12-02T04:28:30.702Z,1013.7
2016-12-02T04:28:56.795Z,1013.66
2016-12-02T04:29:22.893Z,1013.68
2016-12-02T04:29:48.971Z,1013.68
2016-12-02T04:30:15.061Z,1013.68
2016-12-02T04:30:41.158Z,1013.62
2016-12-02T04:31:07.266Z,1013.67
2016-12-02T04:31:33.341Z,1013.63
2016-12-02T04:31:59.439Z,1013.64
2016-12-02T04:32:25.529Z,1013.64
2016-12-02T04:32:51.625Z,1013.62
2016-12-02T04:33:17.705Z,1013.63
2016-12-02T04:33:43.793Z,1013.63
2016-12-02T04:34:09.890Z,1013.66
2016-12-02T04:34:35.971Z,1013.6
2016-12-02T04:35:02.057Z,1013.58
2016-12-02T04:35:28.159Z,1013.63
2016-12-02T04:35:54.242Z,1013.62
2016-12-02T04:36:20.324Z,1013.63
2016-12-02T04:36:46.423Z,1013.61
2016-12-02T04:37:12.514Z,1013.6
2016-12-02T04:37:38.607Z,1013.6
2016-12-02T04:38:04.690Z,1013.6
2016-12-02T04:38:30.775Z,1013.62
2016-12-02T04:38:56.882Z,1013.57
2016-12-02T04:39:22.970Z,1013.61
2016-12-02T04:39:49.056Z,1013.58
2016-12-02T04:40:15.154Z,1013.62
2016-12-02T04:40:41.244Z,1013.6
2016-12-02T04:41:07.327Z,1013.62
2016-12-02T04:41:33.416Z,1013.57
2016-12-02T04:41:59.511Z,1013.59
2016-12-02T04:42:25.590Z,1013.65
2016-12-02T04:42:51.783Z,1013.65
2016-12-02T04:43:17.867Z,1013.66
2016-12-02T04:43:43.961Z,1013.68
2016-12-02T04:44:10.055Z,1013.65
2016-12-02T04:44:36.138Z,1013.64
2016-12-02T04:45:02.234Z,1013.62
2016-12-02T04:45:28.336Z,1013.65
2016-12-02T04:45:54.418Z,1013.63
2016-12-02T04:46:20.502Z,1013.64
2016-12-02T04:46:46.601Z,1013.63
2016-12-02T04:47:12.682Z,1013.62
2016-12-02T04:47:38.770Z,1013.62
2016-12-02T04:48:04.870Z,1013.68
2016-12-02T04:48:30.957Z,1013.63
2016-12-02T04:48:57.059Z,1013.57
2016-12-02T04:49:23.138Z,1013.65
2016-12-02T04:49:49.227Z,1013.68
2016-12-02T04:50:15.325Z,1013.65
2016-12-02T04:50:41.410Z,1013.65
2016-12-02T04:51:07.502Z,1013.68
2016-12-02T04:51:33.599Z,1013.66
2016-12-02T04:51:59.682Z,1013.67
2016-12-02T04:52:25.757Z,1013.65
2016-12-02T04:52:51.864Z,1013.66
2016-12-02T04:53:17.951Z,1013.65
2016-12-02T04:53:44.042Z,1013.68
2016-12-02T04:54:10.135Z,1013.67
2016-12-02T04:54:36.221Z,1013.65
2016-12-02T04:55:02.320Z,1013.67
2016-12-02T04:55:28.408Z,1013.67
2016-12-02T04:55:54.488Z,1013.66
2016-12-02T04:56:20.590Z,1013.63
2016-12-02T04:56:46.685Z,1013.61
2016-12-02T04:57:12.761Z,1013.65
2016-12-02T04:57:38.857Z,1013.61
2016-12-02T04:58:05.249Z,1013.62
2016-12-02T04:58:31.334Z,1013.64
2016-12-02T04:58:57.427Z,1013.63
2016-12-02T04:59:23.551Z,1013.64
2016-12-02T04:59:49.630Z,1013.61
2016-12-02T05:00:15.719Z,1013.61
2016-12-02T05:00:41.813Z,1013.59
2016-12-02T05:01:07.898Z,1013.59
2016-12-02T05:01:33.988Z,1013.57
2016-12-02T05:02:00.085Z,1013.58
2016-12-02T05:02:26.168Z,1013.54
2016-12-02T05:02:52.258Z,1013.58
2016-12-02T05:03:18.361Z,1013.59
2016-12-02T05:03:44.451Z,1013.53
2016-12-02T05:04:10.535Z,1013.57
2016-12-02T05:04:36.632Z,1013.58
2016-12-02T05:05:02.727Z,1013.56
2016-12-02T05:05:28.824Z,1013.52
2016-12-02T05:05:54.908Z,1013.55
2016-12-02T05:06:21.012Z,1013.56
2016-12-02T05:06:47.111Z,1013.56
2016-12-02T05:07:13.198Z,1013.58
2016-12-02T05:07:39.283Z,1013.59
2016-12-02T05:08:05.376Z,1013.6
2016-12-02T05:08:31.470Z,1013.53
2016-12-02T05:08:57.552Z,1013.59
2016-12-02T05:09:23.646Z,1013.59
2016-12-02T05:09:49.746Z,1013.6
2016-12-02T05:10:15.824Z,1013.62
2016-12-02T05:10:41.917Z,1013.58
2016-12-02T05:11:08.002Z,1013.58
2016-12-02T05:11:34.102Z,1013.62
2016-12-02T05:12:00.195Z,1013.6
2016-12-02T05:12:26.279Z,1013.59
2016-12-02T05:12:52.374Z,1013.62
2016-12-02T05:13:18.474Z,1013.59
2016-12-02T05:13:44.556Z,1013.57
2016-12-02T05:14:10.648Z,1013.55
2016-12-02T05:14:36.749Z,1013.56
2016-12-02T05:15:02.832Z,1013.55
2016-12-02T05:15:28.921Z,1013.51
2016-12-02T05:15:55.020Z,1013.52
2016-12-02T05:16:21.113Z,1013.52
2016-12-02T05:16:47.214Z,1013.54